VOE65ND LEAS-LEVC
Flight info
| Callsign | VOE65ND |
|---|---|
| Flight time | 1h 12m |
| Altitude | 33000 |
| Route | KUVAN Y27 LARVO DCT ZMR DCT PDT/N0429F340 M871 NANDO T257 MABUX |
| Aircraft | A320/M-SDFGHIJ1RWY/LB1 |
Departure
| Time | 2026-04-18 08:42 |
|---|---|
| Airport | Asturias Airport (LEAS) |
Arrival
| Time | 2026-04-18 09:54 |
|---|---|
| Airport | Valencia Airport (LEVC) |
| Time | Latitude | Longitude | Altitude | Speed | Heading |
|---|---|---|---|---|---|
| 2026-04-18 08:25 | 43.56014 | -6.03270 | 420 ft | 0 kts | 243° |
| 2026-04-18 08:35 | 43.56020 | -6.03254 | 415 ft | 4 kts | 243° |
| 2026-04-18 08:35 | 43.56032 | -6.03221 | 421 ft | 4 kts | 245° |
| 2026-04-18 08:36 | 43.56042 | -6.03187 | 417 ft | 4 kts | 262° |
| 2026-04-18 08:36 | 43.56042 | -6.03162 | 414 ft | 0 kts | 288° |
| 2026-04-18 08:38 | 43.56048 | -6.03189 | 416 ft | 9 kts | 287° |
| 2026-04-18 08:38 | 43.56105 | -6.03230 | 426 ft | 13 kts | 354° |
| 2026-04-18 08:38 | 43.56157 | -6.03328 | 425 ft | 15 kts | 291° |
| 2026-04-18 08:39 | 43.56195 | -6.03483 | 424 ft | 17 kts | 288° |
| 2026-04-18 08:39 | 43.56232 | -6.03639 | 420 ft | 17 kts | 288° |
| 2026-04-18 08:39 | 43.56267 | -6.03785 | 423 ft | 15 kts | 288° |
| 2026-04-18 08:39 | 43.56303 | -6.03939 | 417 ft | 20 kts | 288° |
| 2026-04-18 08:40 | 43.56352 | -6.04144 | 419 ft | 24 kts | 288° |
| 2026-04-18 08:40 | 43.56406 | -6.04365 | 417 ft | 25 kts | 289° |
| 2026-04-18 08:40 | 43.56457 | -6.04587 | 424 ft | 24 kts | 287° |
| 2026-04-18 08:40 | 43.56562 | -6.04733 | 427 ft | 16 kts | 343° |
| 2026-04-18 08:41 | 43.56638 | -6.04738 | 420 ft | 11 kts | 39° |
| 2026-04-18 08:41 | 43.56631 | -6.04619 | 422 ft | 15 kts | 110° |
| 2026-04-18 08:41 | 43.56576 | -6.04389 | 421 ft | 51 kts | 108° |
| 2026-04-18 08:41 | 43.56391 | -6.03601 | 417 ft | 118 kts | 108° |
| 2026-04-18 08:42 | 43.56086 | -6.02315 | 599 ft | 153 kts | 109° |
| 2026-04-18 08:42 | 43.55864 | -6.01384 | 1023 ft | 154 kts | 108° |
| 2026-04-18 08:42 | 43.55532 | -5.99989 | 1773 ft | 152 kts | 108° |
| 2026-04-18 08:42 | 43.55083 | -5.98106 | 2502 ft | 167 kts | 107° |
| 2026-04-18 08:43 | 43.54699 | -5.96485 | 2776 ft | 190 kts | 107° |
| 2026-04-18 08:43 | 43.54264 | -5.94653 | 3097 ft | 211 kts | 108° |
| 2026-04-18 08:43 | 43.53784 | -5.92641 | 3568 ft | 227 kts | 108° |
| 2026-04-18 08:43 | 43.53437 | -5.91268 | 4000 ft | 232 kts | 114° |
| 2026-04-18 08:44 | 43.52383 | -5.89604 | 4704 ft | 237 kts | 153° |
| 2026-04-18 08:44 | 43.50777 | -5.89214 | 5457 ft | 240 kts | 192° |
| 2026-04-18 08:44 | 43.48947 | -5.90840 | 6518 ft | 243 kts | 229° |
| 2026-04-18 08:44 | 43.47697 | -5.92396 | 7354 ft | 246 kts | 208° |
| 2026-04-18 08:45 | 43.46069 | -5.93156 | 8171 ft | 250 kts | 192° |
| 2026-04-18 08:45 | 43.44343 | -5.93497 | 9010 ft | 252 kts | 187° |
| 2026-04-18 08:45 | 43.43183 | -5.93644 | 9552 ft | 254 kts | 186° |
| 2026-04-18 08:45 | 43.41415 | -5.93848 | 10348 ft | 256 kts | 187° |
| 2026-04-18 08:46 | 43.39632 | -5.94073 | 11086 ft | 259 kts | 188° |
| 2026-04-18 08:46 | 43.37834 | -5.94337 | 11805 ft | 261 kts | 189° |
| 2026-04-18 08:46 | 43.36036 | -5.94746 | 12543 ft | 262 kts | 199° |
| 2026-04-18 08:46 | 43.33891 | -5.96291 | 13305 ft | 273 kts | 220° |
| 2026-04-18 08:47 | 43.32529 | -5.98252 | 13473 ft | 296 kts | 229° |
| 2026-04-18 08:47 | 43.31596 | -5.99732 | 13586 ft | 311 kts | 229° |
| 2026-04-18 08:47 | 43.30132 | -6.02044 | 13870 ft | 328 kts | 229° |
| 2026-04-18 08:47 | 43.28639 | -6.04393 | 14453 ft | 333 kts | 229° |
| 2026-04-18 08:48 | 43.27102 | -6.06798 | 15099 ft | 336 kts | 229° |
| 2026-04-18 08:48 | 43.25556 | -6.09214 | 15735 ft | 338 kts | 229° |
| 2026-04-18 08:48 | 43.23994 | -6.11650 | 16375 ft | 341 kts | 229° |
| 2026-04-18 08:48 | 43.22423 | -6.14101 | 17028 ft | 344 kts | 229° |
| 2026-04-18 08:49 | 43.20839 | -6.16573 | 17681 ft | 346 kts | 229° |
| 2026-04-18 08:49 | 43.19240 | -6.19061 | 18323 ft | 349 kts | 229° |
| 2026-04-18 08:49 | 43.17630 | -6.21563 | 18874 ft | 351 kts | 229° |
| 2026-04-18 08:49 | 43.16007 | -6.24082 | 19412 ft | 354 kts | 229° |
| 2026-04-18 08:50 | 43.14343 | -6.26523 | 19940 ft | 357 kts | 222° |
| 2026-04-18 08:50 | 43.12277 | -6.28440 | 20445 ft | 363 kts | 207° |
| 2026-04-18 08:50 | 43.09869 | -6.29532 | 20972 ft | 369 kts | 192° |
| 2026-04-18 08:50 | 43.07283 | -6.29692 | 21460 ft | 378 kts | 177° |
| 2026-04-18 08:51 | 43.04695 | -6.28870 | 21952 ft | 387 kts | 165° |
| 2026-04-18 08:51 | 43.02130 | -6.27717 | 22430 ft | 390 kts | 165° |
| 2026-04-18 08:51 | 42.99539 | -6.26555 | 22943 ft | 394 kts | 165° |
| 2026-04-18 08:51 | 42.96925 | -6.25385 | 23441 ft | 396 kts | 166° |
| 2026-04-18 08:52 | 42.94292 | -6.24215 | 23880 ft | 400 kts | 166° |
| 2026-04-18 08:52 | 42.91669 | -6.23058 | 24270 ft | 403 kts | 166° |
| 2026-04-18 08:52 | 42.88992 | -6.21876 | 24675 ft | 405 kts | 166° |
| 2026-04-18 08:52 | 42.86299 | -6.20682 | 25067 ft | 409 kts | 166° |
| 2026-04-18 08:53 | 42.83588 | -6.19479 | 25419 ft | 412 kts | 166° |
| 2026-04-18 08:53 | 42.80853 | -6.18269 | 25787 ft | 415 kts | 166° |
| 2026-04-18 08:53 | 42.78100 | -6.17057 | 26158 ft | 417 kts | 166° |
| 2026-04-18 08:53 | 42.75328 | -6.15838 | 26504 ft | 420 kts | 166° |
| 2026-04-18 08:54 | 42.72537 | -6.14625 | 26861 ft | 422 kts | 166° |
| 2026-04-18 08:54 | 42.69765 | -6.13428 | 27217 ft | 425 kts | 166° |
| 2026-04-18 08:54 | 42.66941 | -6.12214 | 27567 ft | 427 kts | 166° |
| 2026-04-18 08:54 | 42.64100 | -6.10996 | 27914 ft | 430 kts | 166° |
| 2026-04-18 08:55 | 42.61239 | -6.09767 | 28248 ft | 432 kts | 166° |
| 2026-04-18 08:55 | 42.58367 | -6.08528 | 28578 ft | 434 kts | 166° |
| 2026-04-18 08:55 | 42.55483 | -6.07282 | 28924 ft | 436 kts | 166° |
| 2026-04-18 08:55 | 42.52584 | -6.06031 | 29254 ft | 438 kts | 166° |
| 2026-04-18 08:56 | 42.49670 | -6.04776 | 29558 ft | 440 kts | 166° |
| 2026-04-18 08:56 | 42.46743 | -6.03520 | 29861 ft | 443 kts | 166° |
| 2026-04-18 08:56 | 42.43798 | -6.02261 | 30139 ft | 445 kts | 166° |
| 2026-04-18 08:56 | 42.40878 | -6.01017 | 30383 ft | 447 kts | 166° |
| 2026-04-18 08:57 | 42.34928 | -5.98476 | 30883 ft | 449 kts | 166° |
| 2026-04-18 08:57 | 42.31945 | -5.97199 | 31133 ft | 450 kts | 166° |
| 2026-04-18 08:57 | 42.28953 | -5.95922 | 31380 ft | 451 kts | 166° |
| 2026-04-18 08:58 | 42.25959 | -5.94650 | 31680 ft | 450 kts | 166° |
| 2026-04-18 08:58 | 42.22977 | -5.93386 | 32017 ft | 449 kts | 166° |
| 2026-04-18 08:58 | 42.20002 | -5.92123 | 32344 ft | 447 kts | 166° |
| 2026-04-18 08:58 | 42.17039 | -5.90861 | 32685 ft | 446 kts | 166° |
| 2026-04-18 08:59 | 42.14089 | -5.89604 | 33037 ft | 444 kts | 166° |
| 2026-04-18 08:59 | 42.11184 | -5.88371 | 33167 ft | 441 kts | 167° |
| 2026-04-18 08:59 | 42.05442 | -5.85938 | 33178 ft | 428 kts | 167° |
| 2026-04-18 09:00 | 41.99775 | -5.83549 | 33192 ft | 426 kts | 167° |
| 2026-04-18 09:00 | 41.94118 | -5.81164 | 33191 ft | 426 kts | 167° |
| 2026-04-18 09:01 | 41.88459 | -5.78788 | 33186 ft | 426 kts | 167° |
| 2026-04-18 09:01 | 41.82838 | -5.76437 | 33177 ft | 426 kts | 167° |
| 2026-04-18 09:02 | 41.77182 | -5.74057 | 33176 ft | 426 kts | 167° |
| 2026-04-18 09:02 | 41.71525 | -5.71687 | 33172 ft | 426 kts | 167° |
| 2026-04-18 09:03 | 41.65870 | -5.69327 | 33164 ft | 426 kts | 167° |
| 2026-04-18 09:03 | 41.60247 | -5.66990 | 33153 ft | 426 kts | 167° |
| 2026-04-18 09:04 | 41.54737 | -5.64006 | 33157 ft | 433 kts | 152° |
| 2026-04-18 09:04 | 41.50183 | -5.58651 | 33157 ft | 444 kts | 131° |
| 2026-04-18 09:05 | 41.46571 | -5.51949 | 33157 ft | 445 kts | 129° |
| 2026-04-18 09:05 | 41.42974 | -5.45292 | 33149 ft | 446 kts | 129° |
| 2026-04-18 09:06 | 41.39342 | -5.38596 | 33152 ft | 446 kts | 129° |
| 2026-04-18 09:06 | 41.35709 | -5.31899 | 33144 ft | 446 kts | 129° |
| 2026-04-18 09:07 | 41.32076 | -5.25209 | 33152 ft | 446 kts | 129° |
| 2026-04-18 09:07 | 41.28463 | -5.18571 | 33148 ft | 446 kts | 129° |
| 2026-04-18 09:08 | 41.24821 | -5.11905 | 33160 ft | 446 kts | 129° |
| 2026-04-18 09:08 | 41.21182 | -5.05241 | 33150 ft | 446 kts | 129° |
| 2026-04-18 09:09 | 41.17539 | -4.98585 | 33156 ft | 446 kts | 129° |
| 2026-04-18 09:09 | 41.13913 | -4.91980 | 33149 ft | 446 kts | 129° |
| 2026-04-18 09:10 | 41.10261 | -4.85334 | 33153 ft | 446 kts | 129° |
| 2026-04-18 09:10 | 41.06602 | -4.78697 | 33152 ft | 446 kts | 129° |
| 2026-04-18 09:11 | 41.02936 | -4.72067 | 33146 ft | 446 kts | 129° |
| 2026-04-18 09:11 | 40.99291 | -4.65494 | 33152 ft | 446 kts | 129° |
| 2026-04-18 09:12 | 40.95618 | -4.58881 | 33159 ft | 446 kts | 129° |
| 2026-04-18 09:12 | 40.91946 | -4.52271 | 33160 ft | 446 kts | 129° |
| 2026-04-18 09:13 | 40.88271 | -4.45678 | 33164 ft | 446 kts | 129° |
| 2026-04-18 09:13 | 40.84612 | -4.39132 | 33170 ft | 446 kts | 129° |
| 2026-04-18 09:14 | 40.80932 | -4.32550 | 33164 ft | 446 kts | 129° |
| 2026-04-18 09:14 | 40.77248 | -4.25977 | 33164 ft | 445 kts | 129° |
| 2026-04-18 09:15 | 40.73556 | -4.19417 | 33178 ft | 445 kts | 129° |
| 2026-04-18 09:15 | 40.69867 | -4.12858 | 33185 ft | 445 kts | 129° |
| 2026-04-18 09:16 | 40.66198 | -4.06352 | 33193 ft | 445 kts | 129° |
| 2026-04-18 09:16 | 40.62500 | -3.99824 | 33200 ft | 445 kts | 129° |
| 2026-04-18 09:17 | 40.58792 | -3.93288 | 33203 ft | 445 kts | 129° |
| 2026-04-18 09:17 | 40.55085 | -3.86765 | 33203 ft | 445 kts | 129° |
| 2026-04-18 09:18 | 40.51398 | -3.80297 | 33199 ft | 445 kts | 129° |
| 2026-04-18 09:18 | 40.47692 | -3.73793 | 33189 ft | 445 kts | 129° |
| 2026-04-18 09:19 | 40.43982 | -3.67299 | 33193 ft | 444 kts | 129° |
| 2026-04-18 09:19 | 40.40272 | -3.60815 | 33182 ft | 444 kts | 130° |
| 2026-04-18 09:20 | 40.36581 | -3.54393 | 33190 ft | 444 kts | 130° |
| 2026-04-18 09:20 | 40.32869 | -3.47936 | 33191 ft | 443 kts | 130° |
| 2026-04-18 09:21 | 40.29156 | -3.41487 | 33191 ft | 443 kts | 130° |
| 2026-04-18 09:21 | 40.25679 | -3.34825 | 33196 ft | 446 kts | 119° |
| 2026-04-18 09:22 | 40.23619 | -3.27210 | 33190 ft | 449 kts | 108° |
| 2026-04-18 09:22 | 40.21895 | -3.19362 | 33189 ft | 449 kts | 108° |
| 2026-04-18 09:23 | 40.20164 | -3.11522 | 33179 ft | 449 kts | 108° |
| 2026-04-18 09:23 | 40.18428 | -3.03689 | 33176 ft | 448 kts | 108° |
| 2026-04-18 09:24 | 40.16685 | -2.95869 | 33185 ft | 448 kts | 108° |
| 2026-04-18 09:24 | 40.14953 | -2.88109 | 33189 ft | 447 kts | 108° |
| 2026-04-18 09:25 | 40.13205 | -2.80309 | 33189 ft | 447 kts | 109° |
| 2026-04-18 09:25 | 40.11449 | -2.72520 | 33190 ft | 447 kts | 109° |
| 2026-04-18 09:26 | 40.09691 | -2.64738 | 33187 ft | 447 kts | 108° |
| 2026-04-18 09:26 | 40.07940 | -2.57006 | 33187 ft | 447 kts | 108° |
| 2026-04-18 09:27 | 40.06174 | -2.49226 | 33186 ft | 447 kts | 109° |
| 2026-04-18 09:27 | 40.04403 | -2.41450 | 33185 ft | 447 kts | 109° |
| 2026-04-18 09:28 | 40.02623 | -2.33684 | 33186 ft | 447 kts | 109° |
| 2026-04-18 09:28 | 40.00845 | -2.25971 | 33182 ft | 447 kts | 109° |
| 2026-04-18 09:29 | 39.98999 | -2.18231 | 33177 ft | 446 kts | 114° |
| 2026-04-18 09:29 | 39.96189 | -2.11072 | 33180 ft | 444 kts | 121° |
| 2026-04-18 09:30 | 39.93205 | -2.04030 | 33178 ft | 444 kts | 121° |
| 2026-04-18 09:30 | 39.90243 | -1.97024 | 32817 ft | 437 kts | 121° |
| 2026-04-18 09:31 | 39.88797 | -1.93616 | 32558 ft | 434 kts | 121° |
| 2026-04-18 09:31 | 39.87339 | -1.90188 | 32281 ft | 431 kts | 121° |
| 2026-04-18 09:31 | 39.85894 | -1.86797 | 31807 ft | 427 kts | 121° |
| 2026-04-18 09:31 | 39.84452 | -1.83425 | 31281 ft | 425 kts | 121° |
| 2026-04-18 09:32 | 39.83017 | -1.80073 | 30773 ft | 423 kts | 121° |
| 2026-04-18 09:32 | 39.81590 | -1.76740 | 30258 ft | 421 kts | 122° |
| 2026-04-18 09:32 | 39.80172 | -1.73421 | 29708 ft | 418 kts | 121° |
| 2026-04-18 09:32 | 39.78770 | -1.70135 | 29215 ft | 414 kts | 121° |
| 2026-04-18 09:33 | 39.77399 | -1.66924 | 28755 ft | 410 kts | 121° |
| 2026-04-18 09:33 | 39.76020 | -1.63703 | 28283 ft | 406 kts | 121° |
| 2026-04-18 09:33 | 39.74648 | -1.60515 | 27827 ft | 403 kts | 121° |
| 2026-04-18 09:33 | 39.73283 | -1.57355 | 27376 ft | 399 kts | 121° |
| 2026-04-18 09:34 | 39.71929 | -1.54223 | 26938 ft | 396 kts | 121° |
| 2026-04-18 09:34 | 39.70588 | -1.51115 | 26475 ft | 393 kts | 121° |
| 2026-04-18 09:34 | 39.69253 | -1.48026 | 26036 ft | 391 kts | 121° |
| 2026-04-18 09:34 | 39.67928 | -1.44953 | 25585 ft | 389 kts | 121° |
| 2026-04-18 09:35 | 39.66611 | -1.41895 | 25123 ft | 387 kts | 121° |
| 2026-04-18 09:35 | 39.65313 | -1.38889 | 24653 ft | 386 kts | 120° |
| 2026-04-18 09:35 | 39.64001 | -1.35855 | 24170 ft | 385 kts | 120° |
| 2026-04-18 09:35 | 39.62687 | -1.32824 | 23661 ft | 385 kts | 120° |
| 2026-04-18 09:36 | 39.61377 | -1.29802 | 23124 ft | 383 kts | 120° |
| 2026-04-18 09:36 | 39.60074 | -1.26802 | 22640 ft | 381 kts | 120° |
| 2026-04-18 09:36 | 39.58777 | -1.23821 | 22156 ft | 378 kts | 120° |
| 2026-04-18 09:36 | 39.57486 | -1.20859 | 21674 ft | 376 kts | 120° |
| 2026-04-18 09:37 | 39.56200 | -1.17915 | 21194 ft | 374 kts | 120° |
| 2026-04-18 09:37 | 39.54921 | -1.14991 | 20725 ft | 372 kts | 120° |
| 2026-04-18 09:37 | 39.53631 | -1.12144 | 20262 ft | 371 kts | 121° |
| 2026-04-18 09:37 | 39.52287 | -1.09305 | 19799 ft | 369 kts | 122° |
| 2026-04-18 09:38 | 39.50926 | -1.06498 | 19329 ft | 367 kts | 123° |
| 2026-04-18 09:38 | 39.49564 | -1.03707 | 18875 ft | 366 kts | 122° |
| 2026-04-18 09:38 | 39.48212 | -1.00929 | 18403 ft | 362 kts | 122° |
| 2026-04-18 09:38 | 39.46901 | -0.98222 | 17934 ft | 347 kts | 122° |
| 2026-04-18 09:39 | 39.45649 | -0.95625 | 17518 ft | 333 kts | 122° |
| 2026-04-18 09:39 | 39.44448 | -0.93124 | 17105 ft | 321 kts | 122° |
| 2026-04-18 09:39 | 39.43293 | -0.90715 | 16727 ft | 310 kts | 122° |
| 2026-04-18 09:39 | 39.42161 | -0.88356 | 16352 ft | 308 kts | 122° |
| 2026-04-18 09:40 | 39.41028 | -0.86003 | 15975 ft | 308 kts | 122° |
| 2026-04-18 09:40 | 39.39912 | -0.83688 | 15607 ft | 308 kts | 122° |
| 2026-04-18 09:40 | 39.38775 | -0.81330 | 15237 ft | 310 kts | 122° |
| 2026-04-18 09:40 | 39.37635 | -0.78967 | 14857 ft | 311 kts | 122° |
| 2026-04-18 09:41 | 39.36491 | -0.76592 | 14490 ft | 312 kts | 122° |
| 2026-04-18 09:41 | 39.35341 | -0.74212 | 14107 ft | 313 kts | 122° |
| 2026-04-18 09:41 | 39.34186 | -0.71824 | 13692 ft | 314 kts | 121° |
| 2026-04-18 09:41 | 39.33029 | -0.69435 | 13301 ft | 314 kts | 121° |
| 2026-04-18 09:42 | 39.31872 | -0.67049 | 12912 ft | 313 kts | 121° |
| 2026-04-18 09:42 | 39.30736 | -0.64703 | 12533 ft | 312 kts | 121° |
| 2026-04-18 09:42 | 39.29584 | -0.62331 | 12140 ft | 312 kts | 121° |
| 2026-04-18 09:42 | 39.28432 | -0.59965 | 11793 ft | 309 kts | 121° |
| 2026-04-18 09:43 | 39.27293 | -0.57629 | 11428 ft | 308 kts | 121° |
| 2026-04-18 09:43 | 39.26167 | -0.55316 | 11011 ft | 301 kts | 121° |
| 2026-04-18 09:43 | 39.25072 | -0.53066 | 10596 ft | 294 kts | 121° |
| 2026-04-18 09:43 | 39.23983 | -0.50828 | 10195 ft | 295 kts | 121° |
| 2026-04-18 09:44 | 39.23063 | -0.48485 | 9819 ft | 293 kts | 104° |
| 2026-04-18 09:44 | 39.22938 | -0.45910 | 9465 ft | 287 kts | 78° |
| 2026-04-18 09:44 | 39.23640 | -0.43583 | 9114 ft | 281 kts | 54° |
| 2026-04-18 09:44 | 39.25013 | -0.41839 | 8691 ft | 279 kts | 31° |
| 2026-04-18 09:45 | 39.26798 | -0.40840 | 8253 ft | 279 kts | 21° |
| 2026-04-18 09:45 | 39.28492 | -0.39648 | 7895 ft | 277 kts | 36° |
| 2026-04-18 09:45 | 39.29874 | -0.37932 | 7536 ft | 276 kts | 52° |
| 2026-04-18 09:45 | 39.30966 | -0.35911 | 7194 ft | 273 kts | 55° |
| 2026-04-18 09:46 | 39.32037 | -0.33866 | 6671 ft | 278 kts | 55° |
| 2026-04-18 09:46 | 39.33101 | -0.31789 | 6213 ft | 279 kts | 56° |
| 2026-04-18 09:46 | 39.34162 | -0.29679 | 5740 ft | 280 kts | 56° |
| 2026-04-18 09:46 | 39.35204 | -0.27592 | 5316 ft | 280 kts | 57° |
| 2026-04-18 09:47 | 39.36256 | -0.25479 | 4867 ft | 280 kts | 57° |
| 2026-04-18 09:47 | 39.37309 | -0.23370 | 4422 ft | 279 kts | 57° |
| 2026-04-18 09:47 | 39.38354 | -0.21278 | 4134 ft | 272 kts | 57° |
| 2026-04-18 09:47 | 39.39352 | -0.19283 | 4062 ft | 257 kts | 57° |
| 2026-04-18 09:48 | 39.40380 | -0.17489 | 3995 ft | 241 kts | 42° |
| 2026-04-18 09:48 | 39.41777 | -0.16423 | 3944 ft | 231 kts | 13° |
| 2026-04-18 09:48 | 39.43352 | -0.16407 | 3893 ft | 227 kts | 341° |
| 2026-04-18 09:48 | 39.44665 | -0.17421 | 3844 ft | 224 kts | 310° |
| 2026-04-18 09:49 | 39.45395 | -0.19155 | 3793 ft | 220 kts | 276° |
| 2026-04-18 09:49 | 39.45350 | -0.21130 | 3754 ft | 222 kts | 265° |
| 2026-04-18 09:49 | 39.45246 | -0.23120 | 3583 ft | 219 kts | 265° |
| 2026-04-18 09:49 | 39.45151 | -0.25067 | 3354 ft | 215 kts | 265° |
| 2026-04-18 09:50 | 39.45060 | -0.26953 | 3117 ft | 204 kts | 265° |
| 2026-04-18 09:50 | 39.44975 | -0.28706 | 2908 ft | 188 kts | 265° |
| 2026-04-18 09:50 | 39.44897 | -0.30325 | 2688 ft | 172 kts | 265° |
| 2026-04-18 09:50 | 39.44826 | -0.31802 | 2496 ft | 158 kts | 265° |
| 2026-04-18 09:51 | 39.44759 | -0.33167 | 2327 ft | 148 kts | 265° |
| 2026-04-18 09:51 | 39.44700 | -0.34468 | 2118 ft | 145 kts | 265° |
| 2026-04-18 09:51 | 39.44686 | -0.35769 | 1842 ft | 144 kts | 275° |
| 2026-04-18 09:51 | 39.44888 | -0.37039 | 1676 ft | 145 kts | 284° |
| 2026-04-18 09:52 | 39.45222 | -0.38273 | 1514 ft | 145 kts | 289° |
| 2026-04-18 09:52 | 39.45625 | -0.39474 | 1361 ft | 145 kts | 295° |
| 2026-04-18 09:52 | 39.46066 | -0.40649 | 1225 ft | 145 kts | 295° |
| 2026-04-18 09:52 | 39.46518 | -0.41819 | 1060 ft | 145 kts | 295° |
| 2026-04-18 09:53 | 39.46963 | -0.42986 | 865 ft | 144 kts | 295° |
| 2026-04-18 09:53 | 39.47396 | -0.44124 | 674 ft | 142 kts | 295° |
| 2026-04-18 09:53 | 39.47833 | -0.45263 | 502 ft | 141 kts | 295° |
| 2026-04-18 09:53 | 39.48261 | -0.46398 | 323 ft | 140 kts | 294° |
| 2026-04-18 09:54 | 39.48679 | -0.47512 | 217 ft | 128 kts | 295° |
| 2026-04-18 09:54 | 39.49000 | -0.48355 | 214 ft | 80 kts | 296° |
| 2026-04-18 09:54 | 39.49172 | -0.48796 | 218 ft | 30 kts | 297° |
| 2026-04-18 09:54 | 39.49245 | -0.48985 | 213 ft | 23 kts | 295° |
| 2026-04-18 09:55 | 39.49340 | -0.49157 | 217 ft | 25 kts | 317° |
| 2026-04-18 09:55 | 39.49444 | -0.49266 | 212 ft | 11 kts | 323° |
| 2026-04-18 09:55 | 39.49502 | -0.49317 | 211 ft | 9 kts | 339° |
| 2026-04-18 09:55 | 39.49543 | -0.49280 | 209 ft | 8 kts | 78° |
| 2026-04-18 09:56 | 39.49534 | -0.49217 | 214 ft | 9 kts | 114° |
| 2026-04-18 09:56 | 39.49495 | -0.49113 | 217 ft | 17 kts | 116° |
| 2026-04-18 09:56 | 39.49433 | -0.48950 | 213 ft | 22 kts | 116° |
| 2026-04-18 09:56 | 39.49362 | -0.48764 | 213 ft | 24 kts | 116° |
| 2026-04-18 09:57 | 39.49286 | -0.48563 | 217 ft | 26 kts | 116° |
| 2026-04-18 09:57 | 39.49205 | -0.48353 | 209 ft | 22 kts | 117° |
| 2026-04-18 09:57 | 39.49157 | -0.48231 | 211 ft | 12 kts | 115° |
| 2026-04-18 09:57 | 39.49125 | -0.48138 | 211 ft | 11 kts | 114° |
| 2026-04-18 09:58 | 39.49094 | -0.48059 | 209 ft | 9 kts | 117° |
| 2026-04-18 09:58 | 39.49067 | -0.47989 | 211 ft | 8 kts | 116° |
| 2026-04-18 09:58 | 39.49045 | -0.47929 | 214 ft | 7 kts | 114° |
| 2026-04-18 09:58 | 39.49033 | -0.47843 | 214 ft | 15 kts | 82° |
| 2026-04-18 09:59 | 39.49056 | -0.47712 | 215 ft | 14 kts | 76° |
| 2026-04-18 09:59 | 39.49044 | -0.47595 | 211 ft | 13 kts | 114° |
| 2026-04-18 09:59 | 39.49008 | -0.47500 | 209 ft | 11 kts | 116° |
| 2026-04-18 10:00 | 39.49041 | -0.47391 | 209 ft | 5 kts | 21° |
| 2026-04-18 10:00 | 39.49047 | -0.47388 | 217 ft | 0 kts | 22° |